Flight Track Log - Related Links

Times and Time Zones

All times are in EDT time to prevent confusion due to time zone crossing. See the EJM826 flight status page for this flight to view local times or setup timezone preferences in your user account.

Time Position Orientation Groundspeed Altitude Reporting Facility
EDT Latitude Longitude Course Direction KTS km/h feet Rate Location/Type
Thu 16:49:51 40.0022 -82.9100 272° West 144 267 1,300  Level Indianapolis Center
Thu 16:51:10 40.0044 -82.9950 272° West 194 359 4,400 1,586 Climbing Indianapolis Center
Thu 16:52:11 39.9633 -83.0539 228° Southwest 282 523 5,000 931 Climbing Indianapolis Center
Thu 16:53:06 39.8928 -83.0425 173° South 292 541 6,200 1,932 Climbing Indianapolis Center
Thu 16:54:09 39.8253 -83.0692 197° South 298 552 8,800 2,256 Climbing Indianapolis Center
Thu 16:55:11 39.7483 -83.0319 160° South 318 589 10,900 2,226 Climbing Indianapolis Center
Thu 16:56:13 39.6708 -82.9303 135° Southeast 331 613 13,400 2,129 Climbing Indianapolis Center
Thu 16:58:17 39.4789 -82.8767 168° South 353 653 17,500 1,935 Climbing Indianapolis Center
Thu 16:59:19 39.3808 -82.8439 166° South 362 671 19,400 1,680 Climbing Indianapolis Center
Thu 17:00:22 39.2836 -82.7903 157° South 381 705 21,000 1,645 Climbing Indianapolis Center
Thu 17:01:23 39.1836 -82.7347 157° South 391 724 22,800 1,805 Climbing Indianapolis Center
Thu 17:02:25 39.0600 -82.6789 161° South 395 732 24,700 1,645 Climbing Indianapolis Center
Thu 17:03:27 38.9506 -82.6511 169° South 403 747 26,200 1,403 Climbing Indianapolis Center
Thu 17:04:29 38.8403 -82.6242 169° South 402 745 27,600 1,306 Climbing Indianapolis Center
Thu 17:05:31 38.7250 -82.6000 171° South 418 774 28,900 1,355 Climbing Indianapolis Center
Thu 17:06:33 38.5936 -82.5708 170° South 424 785 30,400 1,306 Climbing Indianapolis Center
Thu 17:07:35 38.4750 -82.5708 180° South 444 822 31,600 1,056 Climbing Indianapolis Center
Thu 17:08:38 38.3547 -82.5925 188° South 436 808 32,600 1,104 Climbing Indianapolis Center
Thu 17:09:40 38.2311 -82.6164 189° South 445 824 33,900 1,258 Climbing Indianapolis Center
Thu 17:10:42 38.1089 -82.6381 188° South 443 821 35,200 1,452 Climbing Indianapolis Center
Thu 17:11:44 37.9681 -82.6642 188° South 435 806 36,900 1,210 Climbing Indianapolis Center
Thu 17:12:46 37.8453 -82.6881 189° South 441 816 37,700 919 Climbing Indianapolis Center
Thu 17:13:48 37.7217 -82.7103 188° South 447 827 38,800 1,113 Climbing Indianapolis Center
Thu 17:14:50 37.5986 -82.7319 188° South 445 824 40,000 581 Climbing Indianapolis Center
Thu 17:15:52 37.4761 -82.7533 188° South 444 822 40,000  Level Indianapolis Center
Thu 17:16:54 37.3256 -82.7808 188° South 464 859 40,000  Level Indianapolis Center
Thu 17:17:56 37.1933 -82.8039 188° South 472 874 40,000  Level Indianapolis Center
Thu 17:18:58 37.0583 -82.8275 188° South 482 893 40,000  Level Indianapolis Center
Thu 17:20:00 36.9061 -82.8556 188° South 491 909 40,000  Level Indianapolis Center
Thu 17:21:02 36.7694 -82.8781 188° South 501 929 40,000  Level Indianapolis Center
Thu 17:22:04 36.6325 -82.9025 188° South 498 922 40,000  Level Indianapolis Center
Thu 17:23:07 36.5014 -82.9261 188° South 481 892 40,000  Level Indianapolis Center
Thu 17:24:09 36.3689 -82.9489 188° South 478 885 40,000  Level Indianapolis Center
Thu 17:24:42 36.2747 -82.9672 189° South 481 892 40,000  Level Atlanta Center
Thu 17:25:42 36.1436 -82.9897 188° South 481 892 40,000  Level Atlanta Center
Thu 17:26:42 36.0103 -83.0144 189° South 481 892 40,000  Level Atlanta Center
Thu 17:27:42 35.8769 -83.0367 188° South 487 901 40,000 -500 Level Atlanta Center
Thu 17:28:42 35.7519 -83.0817 196° South 477 884 39,000 -1,250 Descending Atlanta Center
Thu 17:29:42 35.6442 -83.1725 214° Southwest 467 864 37,500 -1,500 Descending Atlanta Center
Thu 17:30:42 35.5386 -83.2628 215° Southwest 473 875 36,000 -1,950 Descending Atlanta Center
Thu 17:31:42 35.4347 -83.3556 216° Southwest 473 875 33,600 -2,400 Descending Atlanta Center
Thu 17:32:42 35.3561 -83.4708 230° Southwest 448 830 31,200 -2,400 Descending Atlanta Center
Thu 17:33:42 35.2961 -83.5961 240° Southwest 443 821 28,800 -1,600 Descending Atlanta Center
Thu 17:34:42 35.2381 -83.7183 240° Southwest 431 798 28,000 -950 Descending Atlanta Center
Thu 17:35:42 35.1422 -83.7872 210° Southwest 396 734 26,900 -1,750 Descending Atlanta Center
Thu 17:36:42 35.0294 -83.8308 198° South 405 750 24,500 -2,350 Descending Atlanta Center
Thu 17:37:42 34.9294 -83.8589 193° South 410 760 22,200 -2,400 Descending Atlanta Center
Thu 17:38:42 34.8147 -83.9047 198° South 410 760 19,700 -2,450 Descending Atlanta Center
Thu 17:39:42 34.7083 -83.9225 188° South 391 724 17,300 -2,750 Descending Atlanta Center
Thu 17:40:42 34.6061 -83.9025 171° South 381 705 14,200 -3,367 Descending Atlanta Center
Thu 17:42:42 34.4494 -83.9281 188° South 288 533 7,200 -2,767 Descending Atlanta Center
Thu 17:43:42 34.3808 -83.9758 210° Southwest 278 515 5,900 -600 Descending Atlanta Center
Thu 17:44:42 34.3244 -84.0389 223° Southwest 283 525 6,000 50 Climbing Atlanta Center
Thu 17:45:42 34.2825 -84.1092 234° Southwest 272 504 6,000 -667 Level Atlanta Center
Thu 17:47:42 34.1906 -84.2422 230° Southwest 277 513 4,000 -1,033 Descending Atlanta Center
Thu 17:48:42 34.1406 -84.3072 227° Southwest 277 513 2,900 -600 Descending Atlanta Center
Thu 17:49:42 34.0964 -84.3675 229° Southwest 257 476 2,800 -50 Descending Atlanta Center
Thu 17:50:42 34.0608 -84.4225 232° Southwest 231 428 2,800 -150 Level Atlanta Center
Thu 17:51:42 34.0231 -84.4800 232° Southwest 226 418 2,500 -300 Descending Atlanta Center

Login

Don't have an account? Register now (free) for customized features, flight alerts, and more!